Time;durP1;ratioP1;P1;durP2;ratioP2;P2;SDS_P1;SDS_P2;PMS_P1;PMS_P2;Temp;Humidity;BMP_temperature;BMP_pressure;BME280_temperature;BME280_humidity;BME280_pressure;Samples;Min_cycle;Max_cycle;Signal;HPM_P1;HPM_P2
2022/12/02 13:00:52;;;;;;;29.35;12.90;;;;;;;-4.09;100.00;100600.66;2807221;23;21066;-64
2022/12/02 13:03:18;;;;;;;31.85;12.73;;;;;;;-4.37;100.00;100627.28;5017231;28;20069;-63
2022/12/02 13:05:45;;;;;;;28.70;12.57;;;;;;;-4.31;100.00;100672.69;5017690;28;20062;-62
2022/12/02 13:08:12;;;;;;;31.77;12.30;;;;;;;-4.35;100.00;100692.94;5017971;28;20072;-61
2022/12/02 13:10:38;;;;;;;29.38;12.20;;;;;;;-4.38;100.00;100727.38;5017360;28;20429;-62
2022/12/02 13:13:04;;;;;;;29.98;12.27;;;;;;;-4.44;100.00;100747.03;5017854;28;20050;-61
2022/12/02 13:15:31;;;;;;;27.20;12.13;;;;;;;-4.67;100.00;100766.47;5017508;28;20402;-62
2022/12/02 13:17:58;;;;;;;36.20;13.88;;;;;;;-4.33;100.00;100797.13;5017971;28;20145;-64
2022/12/02 13:20:24;;;;;;;33.53;12.73;;;;;;;-4.23;100.00;100804.59;5017475;28;20046;-62
2022/12/02 13:22:50;;;;;;;34.28;12.98;;;;;;;-4.20;100.00;100766.66;5017694;28;20374;-64
2022/12/02 13:25:17;;;;;;;39.10;15.88;;;;;;;-4.18;100.00;100745.84;5017259;28;20057;-64
2022/12/02 13:27:43;;;;;;;35.42;14.80;;;;;;;-4.29;100.00;100724.16;5017606;28;20056;-64
2022/12/02 13:30:14;;;;;;;38.13;13.95;;;;;;;-4.43;100.00;100700.47;5017526;28;20415;-62
2022/12/02 13:32:40;;;;;;;35.25;13.52;;;;;;;-4.43;100.00;100695.94;5017179;28;20054;-62
2022/12/02 13:35:08;;;;;;;44.08;14.50;;;;;;;-4.54;100.00;100689.50;5017586;28;20049;-63
2022/12/02 13:37:34;;;;;;;42.10;14.65;;;;;;;-4.46;100.00;100688.38;5017063;28;20480;-63
2022/12/02 13:40:02;;;;;;;36.13;13.25;;;;;;;-4.77;100.00;100676.84;5017245;28;20054;-64
2022/12/02 13:42:28;;;;;;;36.17;13.07;;;;;;;-4.61;100.00;100717.41;5016950;28;20401;-62
2022/12/02 13:44:54;;;;;;;26.85;11.95;;;;;;;-4.88;100.00;100732.97;5017388;28;20049;-65
2022/12/02 13:47:21;;;;;;;29.95;11.90;;;;;;;-5.31;100.00;100776.66;5016881;28;20050;-70
2022/12/02 13:49:47;;;;;;;31.85;13.25;;;;;;;-4.92;100.00;100855.66;5017217;28;20054;-62
2022/12/02 13:52:15;;;;;;;30.75;12.95;;;;;;;-5.09;100.00;100850.06;5016884;28;20046;-64
2022/12/02 13:54:41;;;;;;;35.13;12.45;;;;;;;-5.14;100.00;100849.91;5017541;28;20351;-63
2022/12/02 13:57:08;;;;;;;31.25;11.57;;;;;;;-5.15;100.00;100839.44;5016871;28;20068;-62
2022/12/02 13:59:34;;;;;;;29.85;11.68;;;;;;;-5.27;100.00;100833.97;5017338;28;20432;-62
2022/12/02 14:02:01;;;;;;;35.95;11.77;;;;;;;-5.26;100.00;100857.84;5016889;28;20513;-63
2022/12/02 14:04:27;;;;;;;28.25;11.00;;;;;;;-5.46;100.00;100851.84;5016788;28;20045;-62
2022/12/02 14:06:53;;;;;;;25.88;11.07;;;;;;;-5.61;100.00;100851.31;5016888;28;20136;-60
2022/12/02 14:09:20;;;;;;;29.70;11.00;;;;;;;-5.59;100.00;100867.97;5016731;28;20050;-62
2022/12/02 14:11:46;;;;;;;26.88;11.02;;;;;;;-5.53;100.00;100867.94;5017024;28;20050;-62
2022/12/02 14:14:13;;;;;;;28.15;10.82;;;;;;;-5.62;100.00;100847.03;5016635;28;20064;-63
2022/12/02 14:16:39;;;;;;;28.80;12.13;;;;;;;-5.86;100.00;100851.28;5016949;28;20060;-64
2022/12/02 14:19:05;;;;;;;28.27;11.20;;;;;;;-5.83;100.00;100866.88;5016555;28;20308;-64
2022/12/02 14:21:31;;;;;;;21.65;9.52;;;;;;;-6.16;100.00;100867.94;5016793;28;20425;-61
2022/12/02 14:23:58;;;;;;;24.55;11.18;;;;;;;-6.08;100.00;100905.06;5016460;28;20339;-67
2022/12/02 14:26:25;;;;;;;38.28;13.30;;;;;;;-5.96;100.00;100924.72;5017100;28;20045;-62
2022/12/02 14:28:51;;;;;;;32.83;12.38;;;;;;;-6.01;100.00;100921.03;5016521;28;20141;-63
2022/12/02 14:31:17;;;;;;;32.08;11.93;;;;;;;-6.01;100.00;100924.53;5016458;28;20419;-63
2022/12/02 14:33:43;;;;;;;33.83;12.60;;;;;;;-6.03;100.00;100926.63;5016749;28;20053;-64
2022/12/02 14:36:10;;;;;;;33.08;12.30;;;;;;;-6.14;100.00;100926.44;5016104;28;20054;-58
2022/12/02 14:38:36;;;;;;;19.40;8.27;;;;;;;-6.19;100.00;100927.91;5016468;28;20054;-60
2022/12/02 14:41:02;;;;;;;29.50;11.38;;;;;;;-6.08;100.00;100928.28;5016397;28;20421;-63
2022/12/02 14:43:29;;;;;;;29.45;11.43;;;;;;;-6.08;100.00;100939.75;5016388;28;20060;-64
2022/12/02 14:45:56;;;;;;;25.50;10.60;;;;;;;-6.26;100.00;100927.13;5016216;28;20437;-64
2022/12/02 14:48:23;;;;;;;27.42;11.07;;;;;;;-5.96;100.00;100946.09;5016804;28;20058;-64
2022/12/02 14:50:53;;;;;;;32.03;11.90;;;;;;;-6.18;100.00;100918.84;5016175;28;20132;-65
2022/12/02 14:53:19;;;;;;;32.42;12.60;;;;;;;-6.05;100.00;100920.66;5016583;28;20494;-63
2022/12/02 14:55:46;;;;;;;39.00;12.43;;;;;;;-6.16;100.00;100897.31;5017754;28;20056;-62
2022/12/02 14:58:12;;;;;;;30.83;10.68;;;;;;;-6.25;100.00;100882.53;5019691;28;20330;-63
2022/12/02 15:00:39;;;;;;;27.40;10.80;;;;;;;-6.32;100.00;100877.25;5019569;28;20152;-59
2022/12/02 15:03:06;;;;;;;35.60;12.23;;;;;;;-6.25;100.00;100901.22;5019984;28;20054;-63
2022/12/02 15:05:32;;;;;;;25.05;11.77;;;;;;;-6.34;100.00;100911.31;5019788;28;20145;-63
2022/12/02 15:07:58;;;;;;;33.60;13.05;;;;;;;-6.33;100.00;100920.97;5019905;28;20107;-60
2022/12/02 15:10:25;;;;;;;24.20;11.75;;;;;;;-6.51;100.00;100921.63;5019977;28;20056;-61
2022/12/02 15:12:51;;;;;;;28.88;12.00;;;;;;;-6.32;100.00;100938.63;5019455;28;20156;-61
2022/12/02 15:15:17;;;;;;;29.92;12.27;;;;;;;-6.32;100.00;100935.13;5019708;28;20405;-64
2022/12/02 15:17:44;;;;;;;28.00;12.75;;;;;;;-6.35;100.00;100915.03;5019390;28;20056;-64
2022/12/02 15:20:12;;;;;;;32.97;12.32;;;;;;;-6.40;100.00;100918.34;5019373;28;20157;-59
2022/12/02 15:22:38;;;;;;;33.13;13.00;;;;;;;-6.55;100.00;100912.41;5019224;28;20470;-59
2022/12/02 15:25:06;;;;;;;34.03;14.18;;;;;;;-6.74;100.00;100927.41;5019724;28;20057;-63
2022/12/02 15:27:32;;;;;;;34.63;13.05;;;;;;;-6.63;100.00;100966.81;5019004;28;20141;-64
2022/12/02 15:29:58;;;;;;;32.83;13.40;;;;;;;-6.88;100.00;100971.94;5019272;28;20062;-63
2022/12/02 15:32:25;;;;;;;40.22;14.82;;;;;;;-6.52;100.00;101016.06;5019046;28;20061;-65
2022/12/02 15:34:52;;;;;;;36.97;14.02;;;;;;;-6.59;100.00;101009.09;5019082;28;20065;-64
2022/12/02 15:37:18;;;;;;;46.63;16.02;;;;;;;-6.64;100.00;101021.19;5019359;28;20058;-62
2022/12/02 15:39:45;;;;;;;38.58;14.10;;;;;;;-6.61;100.00;101024.47;5018912;28;20131;-64
2022/12/02 15:42:12;;;;;;;37.78;14.57;;;;;;;-6.69;100.00;101034.34;5019133;28;20139;-66
2022/12/02 15:44:38;;;;;;;44.45;14.55;;;;;;;-6.78;100.00;101042.72;5018820;28;20066;-64
2022/12/02 15:47:05;;;;;;;34.65;14.40;;;;;;;-6.83;100.00;101045.19;5019254;28;20056;-64
2022/12/02 15:49:32;;;;;;;43.65;15.13;;;;;;;-6.64;100.00;101057.72;5018987;28;20054;-64
2022/12/02 15:51:59;;;;;;;38.60;14.73;;;;;;;-6.54;100.00;101073.31;5019237;28;20432;-63
2022/12/02 15:54:27;;;;;;;39.05;14.05;;;;;;;-6.93;100.00;101059.75;5018817;28;20046;-65
2022/12/02 15:56:55;;;;;;;46.67;16.70;;;;;;;-6.73;100.00;101081.13;5018957;28;20053;-62
2022/12/02 15:59:22;;;;;;;44.95;16.50;;;;;;;-6.73;100.00;101090.94;5018887;28;20073;-64
2022/12/02 16:01:49;;;;;;;40.25;15.57;;;;;;;-6.73;100.00;101085.59;5018835;28;20407;-62
2022/12/02 16:04:15;;;;;;;43.90;17.17;;;;;;;-6.67;100.00;101087.47;5018763;28;20065;-63
2022/12/02 16:06:42;;;;;;;41.80;15.77;;;;;;;-6.68;100.00;101083.97;5017351;28;20058;-64
2022/12/02 16:09:09;;;;;;;48.70;15.35;;;;;;;-6.79;100.00;101081.94;5019184;28;20157;-60
2022/12/02 16:11:36;;;;;;;44.13;17.05;;;;;;;-6.74;100.00;101084.78;5018642;28;20129;-65
2022/12/02 16:14:02;;;;;;;33.72;15.38;;;;;;;-6.78;100.00;101088.06;5018994;28;20050;-67
2022/12/02 16:16:29;;;;;;;41.17;15.95;;;;;;;-6.84;100.00;101084.38;5018482;28;20112;-64
2022/12/02 16:18:55;;;;;;;49.03;15.23;;;;;;;-6.80;100.00;101098.13;5018492;28;20049;-64
2022/12/02 16:21:22;;;;;;;43.92;15.82;;;;;;;-6.91;100.00;101084.34;5018579;28;20053;-59
2022/12/02 16:23:49;;;;;;;43.80;15.18;;;;;;;-6.78;100.00;101102.22;5018628;28;20152;-59
2022/12/02 16:26:16;;;;;;;38.38;15.32;;;;;;;-6.95;100.00;101103.63;5018622;28;20132;-58
2022/12/02 16:28:44;;;;;;;38.90;15.25;;;;;;;-6.73;100.00;101123.78;5018465;28;20137;-59
2022/12/02 16:31:11;;;;;;;44.35;16.00;;;;;;;-6.76;100.00;101115.38;5018274;28;20427;-61
2022/12/02 16:33:38;;;;;;;51.65;16.80;;;;;;;-6.85;100.00;101117.41;5017931;28;20057;-62
2022/12/02 16:36:05;;;;;;;36.67;14.27;;;;;;;-6.66;100.00;101123.81;5018329;28;20058;-58
2022/12/02 16:38:32;;;;;;;37.17;14.50;;;;;;;-6.82;100.00;101121.50;5018430;28;20053;-59
2022/12/02 16:40:59;;;;;;;36.85;13.05;;;;;;;-6.86;100.00;101118.44;5018571;28;20058;-56
2022/12/02 16:43:26;;;;;;;30.98;13.02;;;;;;;-7.03;100.00;101119.81;5018159;28;20054;-58
2022/12/02 16:45:53;;;;;;;35.15;14.15;;;;;;;-6.73;100.00;101131.78;5018604;28;20058;-55
2022/12/02 16:48:20;;;;;;;38.22;14.57;;;;;;;-6.69;100.00;101129.53;5018039;28;20061;-57
2022/12/02 16:50:46;;;;;;;34.35;11.57;;;;;;;-7.07;100.00;101123.91;5018274;28;20322;-59
2022/12/02 16:53:13;;;;;;;41.80;14.40;;;;;;;-6.80;100.00;101138.13;5018128;28;20093;-59
2022/12/02 16:55:40;;;;;;;37.13;13.88;;;;;;;-6.97;100.00;101140.34;5017981;28;20053;-59
2022/12/02 16:58:07;;;;;;;33.67;12.82;;;;;;;-7.04;100.00;101137.66;5018198;28;20052;-56
2022/12/02 17:00:34;;;;;;;29.90;12.48;;;;;;;-7.02;100.00;101140.13;5017929;28;20045;-56
2022/12/02 17:03:01;;;;;;;38.83;14.93;;;;;;;-7.09;100.00;101134.78;5018255;28;20145;-54
2022/12/02 17:05:28;;;;;;;33.53;13.38;;;;;;;-7.20;100.00;101140.66;5018182;28;20428;-57
2022/12/02 17:07:55;;;;;;;38.30;15.02;;;;;;;-7.23;100.00;101141.91;5018194;28;20082;-54
2022/12/02 17:10:22;;;;;;;38.55;14.05;;;;;;;-7.07;100.00;101148.72;5017791;28;20141;-56
2022/12/02 17:12:49;;;;;;;38.33;15.25;;;;;;;-6.88;100.00;101158.63;5018235;28;20053;-56
2022/12/02 17:15:16;;;;;;;42.67;16.48;;;;;;;-7.05;100.00;101152.00;5018021;28;20053;-58
2022/12/02 17:17:43;;;;;;;37.65;14.65;;;;;;;-7.01;100.00;101147.91;5017471;28;20049;-55
2022/12/02 17:20:11;;;;;;;41.25;15.20;;;;;;;-6.78;100.00;101144.09;5017843;28;20058;-55
2022/12/02 17:22:38;;;;;;;38.45;15.27;;;;;;;-6.79;100.00;101145.94;5017703;28;20107;-57
2022/12/02 17:25:05;;;;;;;48.22;15.57;;;;;;;-6.76;100.00;101139.38;5018007;28;20335;-59
2022/12/02 17:27:32;;;;;;;36.70;15.20;;;;;;;-6.79;100.00;101129.94;5017591;28;20050;-55
2022/12/02 17:29:59;;;;;;;43.03;15.38;;;;;;;-6.83;100.00;101111.84;5017706;28;20054;-56
2022/12/02 17:32:26;;;;;;;35.90;14.88;;;;;;;-7.01;100.00;101110.59;5017664;28;20054;-59
2022/12/02 17:34:54;;;;;;;43.53;14.48;;;;;;;-6.98;100.00;101112.03;5017614;28;20056;-58
2022/12/02 17:37:20;;;;;;;32.85;15.50;;;;;;;-6.93;100.00;101105.09;5017221;28;20064;-54
2022/12/02 17:39:47;;;;;;;36.83;14.00;;;;;;;-7.05;100.00;101108.53;5017784;28;20151;-55
2022/12/02 17:42:14;;;;;;;40.38;14.48;;;;;;;-7.17;100.00;101114.44;5017227;28;20050;-59
2022/12/02 17:44:41;;;;;;;44.42;15.98;;;;;;;-7.17;100.00;101114.44;5017400;28;20065;-57
2022/12/02 17:47:09;;;;;;;30.80;14.10;;;;;;;-7.17;100.00;101119.75;5017214;28;20087;-58
2022/12/02 17:49:37;;;;;;;46.97;17.45;;;;;;;-6.96;100.00;101134.00;5017152;28;20400;-59
2022/12/02 17:52:05;;;;;;;43.30;17.02;;;;;;;-7.03;100.00;101128.66;5017196;28;20080;-59
2022/12/02 17:54:33;;;;;;;41.63;15.40;;;;;;;-7.19;100.00;101121.84;5016896;28;20336;-57
2022/12/02 17:56:59;;;;;;;47.22;17.40;;;;;;;-6.97;100.00;101129.66;5017260;28;20045;-57
2022/12/02 17:59:27;;;;;;;42.58;16.85;;;;;;;-7.00;100.00;101119.41;5017034;28;20050;-58
2022/12/02 18:01:54;;;;;;;50.15;16.83;;;;;;;-7.20;100.00;101114.84;5017286;28;20060;-57
2022/12/02 18:04:21;;;;;;;44.65;17.08;;;;;;;-7.21;100.00;101121.19;5016862;28;20135;-58
2022/12/02 18:06:48;;;;;;;39.85;16.23;;;;;;;-6.97;100.00;101119.00;5017086;28;20097;-56
2022/12/02 18:09:19;;;;;;;41.00;15.20;;;;;;;-7.08;100.00;101116.94;5000264;28;20073;-59
2022/12/02 18:11:46;;;;;;;49.78;15.25;;;;;;;-7.35;100.00;101107.00;5016770;28;20108;-58
2022/12/02 18:14:13;;;;;;;45.42;16.75;;;;;;;-7.39;100.00;101116.44;5016740;28;20069;-58
2022/12/02 18:16:41;;;;;;;42.15;15.15;;;;;;;-7.07;100.00;101118.56;5016522;28;20083;-59
2022/12/02 18:19:08;;;;;;;45.80;17.13;;;;;;;-7.05;100.00;101116.53;5016792;28;20054;-59
2022/12/02 18:21:37;;;;;;;45.67;16.58;;;;;;;-7.14;100.00;101106.03;5016624;28;20050;-58
2022/12/02 18:24:06;;;;;;;41.92;15.93;;;;;;;-6.94;100.00;101107.94;5016793;28;20049;-57
2022/12/02 18:26:39;;;;;;;45.42;17.20;;;;;;;-7.05;100.00;101089.88;5016522;28;20058;-55
2022/12/02 18:29:07;;;;;;;41.67;15.27;;;;;;;-7.22;100.00;101084.91;4999956;28;20049;-54
2022/12/02 18:31:35;;;;;;;42.15;15.95;;;;;;;-6.95;100.00;101087.66;5016082;28;20141;-55
2022/12/02 18:34:05;;;;;;;44.20;15.80;;;;;;;-7.02;100.00;101068.16;5016807;28;20045;-59
2022/12/02 18:36:33;;;;;;;46.88;18.13;;;;;;;-6.95;100.00;101058.31;5016568;28;20172;-59
2022/12/02 18:39:01;;;;;;;44.47;16.60;;;;;;;-6.94;100.00;101055.44;5016385;28;20053;-58
2022/12/02 18:41:28;;;;;;;50.15;19.20;;;;;;;-7.00;100.00;101034.91;5016455;28;20069;-54
2022/12/02 18:43:56;;;;;;;52.88;16.08;;;;;;;-6.94;100.00;101030.63;5016269;28;20415;-58
2022/12/02 18:46:23;;;;;;;42.03;16.33;;;;;;;-7.09;100.00;101020.16;5016513;28;20427;-58
2022/12/02 18:48:51;;;;;;;45.40;16.52;;;;;;;-6.99;100.00;101012.56;5016303;28;20046;-59
2022/12/02 18:51:18;;;;;;;40.28;15.40;;;;;;;-7.28;100.00;100994.28;5016552;28;20091;-56
2022/12/02 18:53:46;;;;;;;53.53;16.60;;;;;;;-7.37;100.00;100996.31;5016243;28;20065;-60
2022/12/02 18:56:13;;;;;;;43.55;15.80;;;;;;;-7.11;100.00;101014.19;5016459;28;20054;-59
2022/12/02 18:58:40;;;;;;;48.13;17.50;;;;;;;-7.35;100.00;101008.41;5015660;28;20410;-59
2022/12/02 19:01:11;;;;;;;41.83;16.20;;;;;;;-7.38;100.00;101023.97;5016346;28;20304;-58
2022/12/02 19:03:39;;;;;;;47.55;17.95;;;;;;;-7.13;100.00;101034.88;5015872;28;20139;-59
2022/12/02 19:06:07;;;;;;;44.03;17.13;;;;;;;-7.04;100.00;101038.19;4999259;28;20065;-55
2022/12/02 19:08:35;;;;;;;48.15;17.52;;;;;;;-7.05;100.00;101029.38;5016101;28;20327;-57
2022/12/02 19:11:02;;;;;;;43.83;16.75;;;;;;;-7.08;100.00;101018.31;5016007;28;20085;-54
2022/12/02 19:13:32;;;;;;;47.75;16.42;;;;;;;-7.04;100.00;101008.88;5016161;28;20050;-58
2022/12/02 19:15:59;;;;;;;53.63;17.52;;;;;;;-7.11;100.00;100996.34;5015894;28;20066;-59
2022/12/02 19:18:27;;;;;;;51.17;16.85;;;;;;;-7.16;100.00;100993.50;5016412;28;20049;-57
2022/12/02 19:20:55;;;;;;;49.25;17.20;;;;;;;-7.28;100.00;100995.09;5016127;28;20077;-58
2022/12/02 19:23:22;;;;;;;45.50;16.17;;;;;;;-7.07;100.00;101003.94;5015929;28;20431;-60
2022/12/02 19:25:49;;;;;;;55.28;17.95;;;;;;;-7.28;100.00;100988.97;5015876;28;20054;-57
2022/12/02 19:28:16;;;;;;;52.60;16.33;;;;;;;-7.29;100.00;100988.13;5015893;28;20049;-60
2022/12/02 19:30:43;;;;;;;48.58;16.90;;;;;;;-7.27;100.00;100996.75;5015854;28;20061;-58
2022/12/02 19:33:10;;;;;;;46.28;17.92;;;;;;;-7.16;100.00;101000.66;5015897;28;20057;-56
2022/12/02 19:35:38;;;;;;;51.85;19.05;;;;;;;-7.20;100.00;100986.09;5015905;28;20053;-57
2022/12/02 19:38:05;;;;;;;45.60;16.08;;;;;;;-7.23;100.00;100986.50;5015817;28;20053;-58
2022/12/02 19:40:32;;;;;;;45.70;16.10;;;;;;;-7.23;100.00;100978.50;5016106;28;20137;-59
2022/12/02 19:42:59;;;;;;;44.15;16.67;;;;;;;-7.16;100.00;100977.50;5019116;28;20115;-56
2022/12/02 19:45:26;;;;;;;45.13;15.68;;;;;;;-7.19;100.00;100977.09;5019508;28;20062;-58
2022/12/02 19:47:53;;;;;;;38.53;15.40;;;;;;;-7.19;100.00;100988.56;5019054;28;20116;-59
2022/12/02 19:50:20;;;;;;;48.22;16.10;;;;;;;-7.18;100.00;100976.88;5019396;28;20050;-58
2022/12/02 19:52:48;;;;;;;43.03;15.00;;;;;;;-7.31;100.00;100954.72;5018982;28;20049;-57
2022/12/02 19:55:15;;;;;;;48.97;16.88;;;;;;;-7.58;100.00;100928.84;5018893;28;20049;-56
2022/12/02 19:57:42;;;;;;;44.95;16.70;;;;;;;-7.42;100.00;100945.50;5018943;28;20046;-56
2022/12/02 20:00:14;;;;;;;47.63;16.02;;;;;;;-7.40;100.00;100944.25;5018871;28;20054;-56
2022/12/02 20:02:41;;;;;;;42.13;15.27;;;;;;;-7.25;100.00;100946.72;5018780;28;20407;-54
2022/12/02 20:05:11;;;;;;;36.33;14.63;;;;;;;-7.24;100.00;100951.03;5018890;28;20085;-58
2022/12/02 20:07:38;;;;;;;43.03;16.25;;;;;;;-7.32;100.00;100942.44;5019293;28;20489;-55
2022/12/02 20:10:06;;;;;;;42.83;16.25;;;;;;;-7.21;100.00;100945.28;5018946;28;20054;-57
2022/12/02 20:12:33;;;;;;;43.42;16.48;;;;;;;-7.45;100.00;100919.25;5019092;28;20050;-57
2022/12/02 20:15:00;;;;;;;42.55;15.57;;;;;;;-7.50;100.00;100929.69;5018648;28;20331;-59
2022/12/02 20:17:27;;;;;;;47.05;14.98;;;;;;;-7.40;100.00;100962.88;5019137;28;20054;-57
2022/12/02 20:19:53;;;;;;;44.22;16.55;;;;;;;-7.21;100.00;100979.94;5018566;28;20049;-59
2022/12/02 20:22:20;;;;;;;44.15;16.27;;;;;;;-7.18;100.00;100966.22;5018686;28;20065;-60
2022/12/02 20:24:46;;;;;;;40.75;16.95;;;;;;;-7.17;100.00;100953.69;5018573;28;20111;-57
2022/12/02 20:27:13;;;;;;;53.60;18.98;;;;;;;-7.21;100.00;100953.28;5018797;28;20139;-56
2022/12/02 20:29:40;;;;;;;47.75;18.20;;;;;;;-7.26;100.00;100937.09;5018821;28;20046;-55
2022/12/02 20:32:06;;;;;;;46.00;17.85;;;;;;;-7.51;100.00;100910.22;5018557;28;20045;-58
2022/12/02 20:34:33;;;;;;;47.25;17.05;;;;;;;-7.52;100.00;100929.09;5018748;28;20168;-59
2022/12/02 20:36:59;;;;;;;47.60;17.15;;;;;;;-7.23;100.00;100947.34;5018502;28;20192;-54
2022/12/02 20:39:25;;;;;;;43.33;15.77;;;;;;;-7.21;100.00;100936.47;5018799;28;20081;-58
2022/12/02 20:41:51;;;;;;;38.70;15.77;;;;;;;-7.24;100.00;100924.38;5018345;28;20085;-54
2022/12/02 20:44:22;;;;;;;46.65;18.27;;;;;;;-7.34;100.00;100914.13;5018775;28;20129;-56
2022/12/02 20:46:48;;;;;;;43.47;16.13;;;;;;;-7.27;100.00;100916.78;5018220;28;20058;-56
2022/12/02 20:49:15;;;;;;;48.50;16.05;;;;;;;-7.26;100.00;100905.13;5018182;28;20140;-58
2022/12/02 20:51:41;;;;;;;46.33;17.25;;;;;;;-7.31;100.00;100888.09;5018676;28;20104;-58
2022/12/02 20:54:07;;;;;;;47.58;18.70;;;;;;;-7.30;100.00;100889.72;5017334;28;20089;-58
2022/12/02 20:56:34;;;;;;;46.47;18.27;;;;;;;-7.27;100.00;100884.00;5018355;28;20053;-54
2022/12/02 20:59:00;;;;;;;42.80;16.30;;;;;;;-7.32;100.00;100871.31;5017997;28;20049;-57
2022/12/02 21:01:27;;;;;;;44.55;16.35;;;;;;;-7.42;100.00;100847.72;5018215;28;20360;-55
2022/12/02 21:03:55;;;;;;;38.88;16.27;;;;;;;-7.44;100.00;100830.31;5018110;28;20053;-59
2022/12/02 21:06:25;;;;;;;45.00;16.73;;;;;;;-7.44;100.00;100832.97;5018230;28;20129;-58
2022/12/02 21:08:54;;;;;;;44.05;16.05;;;;;;;-7.46;100.00;100819.03;5017631;28;20050;-56
2022/12/02 21:11:21;;;;;;;45.53;17.50;;;;;;;-7.48;100.00;100813.09;5018381;28;20049;-60
2022/12/02 21:13:49;;;;;;;46.65;17.75;;;;;;;-7.57;100.00;100783.19;5017778;28;20145;-56
2022/12/02 21:16:17;;;;;;;50.13;18.15;;;;;;;-7.51;100.00;100795.69;5017666;28;20045;-54
2022/12/02 21:18:50;;;;;;;49.88;17.00;;;;;;;-7.50;100.00;100807.97;5017722;28;20054;-60
2022/12/02 21:21:17;;;;;;;44.65;17.63;;;;;;;-7.61;100.00;100801.41;5016733;28;20049;-59
2022/12/02 21:23:44;;;;;;;48.15;18.05;;;;;;;-7.53;100.00;100811.06;5017974;28;20064;-59
2022/12/02 21:26:10;;;;;;;56.20;18.88;;;;;;;-7.53;100.00;100792.41;5017799;28;20377;-59
2022/12/02 21:28:36;;;;;;;40.50;16.77;;;;;;;-7.54;100.00;100779.28;5017794;28;20179;-54
2022/12/02 21:31:03;;;;;;;48.00;19.42;;;;;;;-7.60;100.00;100773.78;5017457;28;20049;-59
2022/12/02 21:33:29;;;;;;;47.05;18.02;;;;;;;-7.54;100.00;100780.09;5018108;28;20045;-55
2022/12/02 21:36:01;;;;;;;45.88;17.00;;;;;;;-7.53;100.00;100776.44;5017505;28;20137;-59
2022/12/02 21:38:29;;;;;;;44.92;16.95;;;;;;;-7.60;100.00;100748.97;5017922;28;20053;-54
2022/12/02 21:40:56;;;;;;;42.92;15.13;;;;;;;-7.58;100.00;100747.75;5017642;28;20050;-57
2022/12/02 21:43:22;;;;;;;43.55;16.05;;;;;;;-7.55;100.00;100737.72;5017655;28;20308;-57
2022/12/02 21:45:48;;;;;;;40.33;16.75;;;;;;;-7.62;100.00;100719.88;5017636;28;20089;-58
2022/12/02 21:48:15;;;;;;;45.97;17.73;;;;;;;-7.58;100.00;100699.78;5017252;28;20371;-58
2022/12/02 21:50:41;;;;;;;42.72;17.88;;;;;;;-7.75;100.00;100676.50;5017610;28;20049;-54
2022/12/02 21:53:08;;;;;;;49.40;16.98;;;;;;;-7.72;100.00;100681.41;5017394;28;20050;-58
2022/12/02 21:55:34;;;;;;;43.92;16.20;;;;;;;-7.57;100.00;100695.28;5017470;28;20050;-57
2022/12/02 21:58:01;;;;;;;46.95;17.00;;;;;;;-7.49;100.00;100694.25;5017120;28;20085;-59
2022/12/02 22:00:27;;;;;;;52.30;18.08;;;;;;;-7.43;100.00;100664.09;5017354;28;20057;-58
2022/12/02 22:02:54;;;;;;;52.50;17.15;;;;;;;-7.33;100.00;100656.47;5017134;28;20085;-56
2022/12/02 22:05:20;;;;;;;50.33;17.60;;;;;;;-7.27;100.00;100637.00;5017465;28;20089;-59
2022/12/02 22:07:47;;;;;;;43.38;16.85;;;;;;;-7.20;100.00;100618.31;5017047;28;20396;-58
2022/12/02 22:10:16;;;;;;;42.88;15.75;;;;;;;-7.11;100.00;100598.38;5017370;28;20049;-57
2022/12/02 22:12:43;;;;;;;50.35;17.23;;;;;;;-6.95;100.00;100592.53;5017192;28;20053;-56
2022/12/02 22:15:10;;;;;;;46.33;16.73;;;;;;;-6.95;100.00;100570.41;5017027;28;20056;-57
2022/12/02 22:17:36;;;;;;;40.65;14.98;;;;;;;-6.96;100.00;100561.59;5017007;28;20107;-56
2022/12/02 22:20:04;;;;;;;40.28;16.17;;;;;;;-6.96;100.00;100553.59;5016945;28;20145;-57
2022/12/02 22:22:31;;;;;;;41.85;16.70;;;;;;;-6.79;100.00;100555.75;5017068;28;20112;-54
2022/12/02 22:24:57;;;;;;;45.53;15.43;;;;;;;-6.76;100.00;100540.13;5016941;28;20139;-58
2022/12/02 22:27:25;;;;;;;41.70;14.77;;;;;;;-6.72;100.00;100537.84;5017031;28;20046;-57
2022/12/02 22:29:51;;;;;;;43.42;16.55;;;;;;;-6.63;100.00;100541.84;5016646;28;20085;-58
2022/12/02 22:32:17;;;;;;;39.67;15.27;;;;;;;-6.64;100.00;100538.34;5017246;28;20088;-57
2022/12/02 22:34:44;;;;;;;42.55;17.45;;;;;;;-6.44;100.00;100542.72;5016485;28;20053;-56
2022/12/02 22:37:10;;;;;;;44.00;14.82;;;;;;;-6.29;100.00;100537.03;5017033;28;20140;-58
2022/12/02 22:39:36;;;;;;;48.88;17.58;;;;;;;-6.25;100.00;100514.22;5016825;28;20101;-57
2022/12/02 22:42:03;;;;;;;45.47;16.98;;;;;;;-6.14;100.00;100507.31;5016749;28;20064;-58
2022/12/02 22:44:30;;;;;;;41.20;14.50;;;;;;;-6.18;100.00;100497.06;5016517;28;20046;-59
2022/12/02 22:46:56;;;;;;;42.95;15.07;;;;;;;-6.17;100.00;100501.38;5016483;28;20064;-59
2022/12/02 22:49:22;;;;;;;41.67;14.82;;;;;;;-6.08;100.00;100491.22;5016765;28;20363;-59
2022/12/02 22:51:48;;;;;;;43.88;16.23;;;;;;;-5.88;100.00;100506.16;5016559;28;20359;-57
2022/12/02 22:54:15;;;;;;;37.58;15.02;;;;;;;-5.94;100.00;100500.69;5016630;28;20330;-59
2022/12/02 22:56:41;;;;;;;45.40;15.65;;;;;;;-5.81;100.00;100505.03;5016343;28;20122;-54
2022/12/02 22:59:07;;;;;;;43.50;16.50;;;;;;;-5.80;100.00;100490.63;5016818;28;20331;-60
2022/12/02 23:01:34;;;;;;;42.78;17.00;;;;;;;-5.78;100.00;100469.88;5016566;28;20080;-57
2022/12/02 23:04:01;;;;;;;39.78;15.88;;;;;;;-5.68;100.00;100469.34;5016796;28;20156;-58
2022/12/02 23:06:27;;;;;;;42.67;15.05;;;;;;;-5.59;100.00;100451.97;5016174;28;20372;-55
2022/12/02 23:08:53;;;;;;;40.22;15.93;;;;;;;-5.57;100.00;100449.84;5016453;28;20054;-57
2022/12/02 23:11:19;;;;;;;36.75;15.23;;;;;;;-5.49;100.00;100459.44;5016209;28;20085;-57
2022/12/02 23:13:46;;;;;;;40.72;16.10;;;;;;;-5.52;100.00;100442.00;5016138;28;20049;-58
2022/12/02 23:16:12;;;;;;;38.63;15.45;;;;;;;-5.57;100.00;100411.63;5017466;28;20140;-59
2022/12/02 23:18:39;;;;;;;44.25;16.98;;;;;;;-5.60;100.00;100415.56;5019526;28;20104;-56
2022/12/02 23:21:05;;;;;;;43.72;15.75;;;;;;;-5.58;100.00;100432.22;5019949;28;20056;-57
2022/12/02 23:23:31;;;;;;;39.78;15.05;;;;;;;-5.49;100.00;100425.50;5019484;28;20064;-57
2022/12/02 23:25:58;;;;;;;48.47;17.70;;;;;;;-5.53;100.00;100408.31;5019939;28;20429;-59
2022/12/02 23:28:24;;;;;;;37.83;15.70;;;;;;;-5.59;100.00;100392.38;5019426;28;20412;-56
2022/12/02 23:30:50;;;;;;;41.25;14.57;;;;;;;-5.32;100.00;100419.50;5019842;28;20297;-58
2022/12/02 23:33:16;;;;;;;44.28;16.00;;;;;;;-5.48;100.00;100395.06;5019372;28;20049;-56
2022/12/02 23:35:43;;;;;;;36.75;14.48;;;;;;;-5.22;100.00;100414.41;5019681;28;20053;-61
2022/12/02 23:38:10;;;;;;;39.83;15.88;;;;;;;-5.26;100.00;100418.59;5019541;28;20385;-57
2022/12/02 23:40:36;;;;;;;41.65;16.33;;;;;;;-5.15;100.00;100409.75;5019480;28;20103;-59
2022/12/02 23:43:03;;;;;;;37.53;13.95;;;;;;;-5.08;100.00;100406.97;5019298;28;20075;-58
2022/12/02 23:45:29;;;;;;;36.97;13.77;;;;;;;-5.15;100.00;100384.88;5019161;28;20148;-57
2022/12/02 23:47:55;;;;;;;39.83;16.23;;;;;;;-5.39;100.00;100366.16;5019607;28;20124;-56
2022/12/02 23:50:21;;;;;;;40.38;15.05;;;;;;;-5.18;100.00;100398.72;5019094;28;20054;-58
2022/12/02 23:52:48;;;;;;;36.33;14.35;;;;;;;-5.09;100.00;100419.53;5019332;28;20049;-58
2022/12/02 23:55:15;;;;;;;38.25;14.38;;;;;;;-4.99;100.00;100421.66;5019046;28;20116;-56
2022/12/02 23:57:41;;;;;;;37.22;14.88;;;;;;;-5.21;100.00;100397.31;5019327;28;20053;-58
